createdAt,value
2018-05-03T00:01:50.726Z,11.60
2018-05-03T00:04:16.721Z,11.50
2018-05-03T00:06:43.462Z,11.30
2018-05-03T00:09:10.180Z,11.30
2018-05-03T00:11:36.199Z,11.30
2018-05-03T00:14:02.181Z,11.30
2018-05-03T00:16:28.170Z,11.30
2018-05-03T00:18:54.914Z,11.20
2018-05-03T00:21:20.919Z,11.20
2018-05-03T00:23:46.917Z,11.40
2018-05-03T00:26:12.913Z,11.30
2018-05-03T00:28:38.912Z,11.30
2018-05-03T00:31:04.925Z,11.30
2018-05-03T00:33:31.801Z,11.10
2018-05-03T00:35:57.791Z,11.10
2018-05-03T00:38:24.553Z,11.20
2018-05-03T00:40:50.547Z,11.20
2018-05-03T00:43:16.542Z,11.20
2018-05-03T00:45:42.573Z,11.00
2018-05-03T00:48:08.582Z,11.20
2018-05-03T00:50:34.597Z,11.10
2018-05-03T00:53:00.581Z,11.20
2018-05-03T00:55:26.602Z,11.20
2018-05-03T00:57:52.630Z,11.10
2018-05-03T01:00:18.750Z,11.00
2018-05-03T01:02:44.749Z,10.80
2018-05-03T01:05:10.749Z,10.80
2018-05-03T01:07:36.737Z,10.70
2018-05-03T01:10:02.738Z,10.70
2018-05-03T01:12:29.478Z,10.80
2018-05-03T01:14:56.225Z,10.70
2018-05-03T01:17:22.981Z,10.70
2018-05-03T01:19:48.981Z,10.80
2018-05-03T01:22:15.705Z,10.50
2018-05-03T01:24:41.854Z,10.50
2018-05-03T01:27:07.868Z,10.60
2018-05-03T01:29:33.856Z,10.60
2018-05-03T01:31:59.841Z,10.60
2018-05-03T01:34:26.561Z,10.70
2018-05-03T01:36:52.565Z,10.70
2018-05-03T01:39:18.565Z,10.50
2018-05-03T01:41:44.549Z,10.60
2018-05-03T01:44:10.553Z,10.60
2018-05-03T01:46:37.287Z,10.50
2018-05-03T01:49:04.030Z,10.70
2018-05-03T01:51:30.881Z,10.60
2018-05-03T01:53:56.927Z,10.60
2018-05-03T01:56:22.949Z,10.60
2018-05-03T01:58:49.033Z,10.50
2018-05-03T02:01:15.104Z,10.50
2018-05-03T02:03:41.097Z,10.60
2018-05-03T02:06:07.115Z,10.60
2018-05-03T02:08:33.862Z,10.50
2018-05-03T02:11:00.609Z,10.50
2018-05-03T02:13:27.337Z,10.50
2018-05-03T02:15:54.188Z,10.50
2018-05-03T02:18:20.916Z,10.40
2018-05-03T02:20:46.909Z,10.40
2018-05-03T02:23:12.901Z,10.50
2018-05-03T02:25:38.914Z,10.50
2018-05-03T02:28:04.912Z,10.50
2018-05-03T02:30:31.657Z,10.50
2018-05-03T02:32:58.470Z,10.50
2018-05-03T02:35:24.477Z,10.50
2018-05-03T02:37:50.471Z,10.50
2018-05-03T02:40:16.514Z,10.50
2018-05-03T02:42:42.497Z,10.50
2018-05-03T02:45:09.234Z,10.30
2018-05-03T02:47:35.973Z,10.30
2018-05-03T02:50:02.733Z,10.20
2018-05-03T02:52:28.722Z,10.20
2018-05-03T02:54:54.725Z,10.30
2018-05-03T02:57:27.036Z,10.30
2018-05-03T02:59:59.993Z,10.30
2018-05-03T03:02:38.413Z,10.30
2018-05-03T03:05:16.885Z,10.30
2018-05-03T03:08:09.109Z,10.30
2018-05-03T03:11:00.897Z,10.30
2018-05-03T03:13:39.321Z,10.30
2018-05-03T03:16:18.473Z,10.30
2018-05-03T03:18:56.853Z,10.30
2018-05-03T03:21:35.254Z,10.30
2018-05-03T03:24:13.595Z,10.20
2018-05-03T03:26:52.731Z,10.10
2018-05-03T03:29:31.109Z,10.10
2018-05-03T03:32:09.365Z,10.20
2018-05-03T03:34:35.385Z,10.20
2018-05-03T03:37:13.874Z,10.10
2018-05-03T03:39:45.993Z,10.10
2018-05-03T03:42:18.053Z,10.10
2018-05-03T03:44:44.053Z,10.10
2018-05-03T03:47:10.822Z,10.20
2018-05-03T03:49:36.822Z,10.10
2018-05-03T03:52:02.828Z,10.20
2018-05-03T03:54:29.569Z,10.20
2018-05-03T03:56:56.337Z,10.20
2018-05-03T03:59:22.326Z,10.20
2018-05-03T04:01:49.081Z,10.10
2018-05-03T04:04:15.806Z,10.10
2018-05-03T04:06:42.573Z,10.10
2018-05-03T04:09:08.582Z,10.10
2018-05-03T04:11:35.326Z,10.10
2018-05-03T04:14:02.069Z,10.10
2018-05-03T04:16:28.075Z,10.10
2018-05-03T04:19:00.897Z,10.30
2018-05-03T04:21:33.041Z,10.30
2018-05-03T04:24:05.962Z,10.40
2018-05-03T04:26:32.078Z,10.40
2018-05-03T04:28:58.077Z,10.50
2018-05-03T04:31:24.808Z,10.50
2018-05-03T04:33:51.627Z,10.60
2018-05-03T04:36:19.108Z,10.60
2018-05-03T04:38:45.849Z,10.70
2018-05-03T04:41:11.816Z,10.60
2018-05-03T04:43:37.821Z,10.80
2018-05-03T04:46:03.835Z,10.90
2018-05-03T04:48:29.859Z,11.00
2018-05-03T04:50:56.585Z,11.00
2018-05-03T04:53:30.401Z,11.20
2018-05-03T04:55:57.137Z,11.30
2018-05-03T04:58:23.877Z,11.20
2018-05-03T05:00:49.881Z,11.20
2018-05-03T05:03:15.881Z,11.30
2018-05-03T05:05:41.897Z,11.20
2018-05-03T05:08:07.882Z,11.30
2018-05-03T05:10:33.946Z,11.30
2018-05-03T05:12:59.942Z,11.40
2018-05-03T05:15:25.949Z,11.50
2018-05-03T05:17:52.733Z,11.40
2018-05-03T05:20:18.888Z,11.40
2018-05-03T05:22:45.018Z,11.20
2018-05-03T05:25:11.021Z,11.20
2018-05-03T05:27:37.829Z,11.30
2018-05-03T05:30:03.854Z,11.30
2018-05-03T05:32:30.049Z,11.40
2018-05-03T05:34:56.794Z,11.20
2018-05-03T05:37:22.809Z,11.20
2018-05-03T05:39:50.409Z,11.50
2018-05-03T05:42:16.396Z,11.50
2018-05-03T05:44:43.145Z,11.50
2018-05-03T05:47:09.877Z,11.50
2018-05-03T05:49:36.802Z,11.50
2018-05-03T05:52:02.854Z,11.50
2018-05-03T05:54:29.594Z,11.50
2018-05-03T05:56:55.649Z,11.50
2018-05-03T05:59:21.663Z,11.60
2018-05-03T06:01:47.666Z,11.50
2018-05-03T06:04:14.556Z,11.40
2018-05-03T06:06:41.229Z,11.40
2018-05-03T06:09:07.222Z,11.30
2018-05-03T06:11:33.205Z,11.30
2018-05-03T06:13:59.194Z,11.20
2018-05-03T06:16:25.937Z,11.10
2018-05-03T06:18:52.180Z,11.20
2018-05-03T06:21:18.260Z,11.30
2018-05-03T06:23:44.267Z,11.30
2018-05-03T06:26:10.269Z,11.20
2018-05-03T06:28:36.258Z,11.20
2018-05-03T06:31:02.253Z,11.10
2018-05-03T06:33:28.564Z,11.10
2018-05-03T06:35:54.648Z,11.00
2018-05-03T06:38:21.438Z,11.00
2018-05-03T06:40:47.425Z,11.00
2018-05-03T06:43:13.430Z,11.00
2018-05-03T06:45:39.422Z,11.00
2018-05-03T06:48:05.449Z,11.00
2018-05-03T06:50:31.433Z,11.00
2018-05-03T06:52:57.448Z,11.20
2018-05-03T06:55:23.561Z,11.00
2018-05-03T06:57:50.314Z,11.00
2018-05-03T07:00:16.305Z,11.00
2018-05-03T07:02:43.061Z,11.30
2018-05-03T07:05:09.789Z,11.40
2018-05-03T07:07:35.809Z,11.30
2018-05-03T07:10:01.853Z,11.20
2018-05-03T07:12:29.337Z,11.00
2018-05-03T07:14:55.345Z,11.00
2018-05-03T07:17:22.071Z,11.00
2018-05-03T07:19:48.802Z,11.00
2018-05-03T07:22:14.802Z,11.00
2018-05-03T07:24:40.794Z,10.90
2018-05-03T07:27:06.798Z,11.10
2018-05-03T07:29:32.828Z,11.00
2018-05-03T07:31:58.808Z,11.20
2018-05-03T07:34:24.838Z,11.30
2018-05-03T07:36:51.579Z,11.40
2018-05-03T07:39:18.335Z,11.30
2018-05-03T07:41:45.072Z,11.30
2018-05-03T07:44:11.818Z,11.40
2018-05-03T07:46:38.553Z,11.40
2018-05-03T07:49:05.317Z,11.40
2018-05-03T07:51:31.326Z,11.40
2018-05-03T07:53:58.078Z,11.30
2018-05-03T07:56:24.069Z,11.40
2018-05-03T07:58:50.078Z,11.20
2018-05-03T08:01:16.071Z,11.10
2018-05-03T08:03:42.075Z,11.10
2018-05-03T08:06:08.114Z,11.30
2018-05-03T08:08:34.902Z,11.20
2018-05-03T08:11:00.985Z,11.20
2018-05-03T08:13:27.701Z,11.10
2018-05-03T08:15:53.754Z,11.10
2018-05-03T08:18:19.772Z,11.20
2018-05-03T08:20:45.761Z,11.10
2018-05-03T08:23:12.501Z,11.30
2018-05-03T08:25:38.541Z,11.30
2018-05-03T08:28:04.545Z,11.40
2018-05-03T08:30:31.269Z,11.50
2018-05-03T08:32:58.018Z,11.60
2018-05-03T08:35:24.745Z,11.60
2018-05-03T08:37:50.765Z,11.70
2018-05-03T08:40:16.748Z,11.70
2018-05-03T08:42:42.731Z,11.50
2018-05-03T08:45:09.484Z,11.60
2018-05-03T08:47:36.201Z,11.70
2018-05-03T08:50:02.942Z,11.80
2018-05-03T08:52:29.669Z,11.80
2018-05-03T08:54:55.678Z,11.80
2018-05-03T08:57:22.587Z,11.90
2018-05-03T08:59:48.613Z,12.00
2018-05-03T09:02:14.609Z,12.00
2018-05-03T09:04:41.469Z,12.00
2018-05-03T09:07:07.456Z,12.00
2018-05-03T09:09:33.467Z,12.10
2018-05-03T09:11:59.461Z,12.20
2018-05-03T09:14:26.414Z,12.30
2018-05-03T09:16:53.358Z,12.30
2018-05-03T09:19:19.368Z,12.40
2018-05-03T09:21:46.305Z,12.60
2018-05-03T09:24:14.075Z,12.80
2018-05-03T09:26:40.077Z,12.80
2018-05-03T09:29:06.722Z,12.90
2018-05-03T09:31:32.705Z,12.90
2018-05-03T09:33:58.725Z,13.00
2018-05-03T09:36:24.885Z,13.10
2018-05-03T09:38:51.169Z,13.00
2018-05-03T09:41:17.158Z,13.30
2018-05-03T09:43:44.078Z,13.30
2018-05-03T09:46:10.802Z,13.30
2018-05-03T09:48:37.441Z,13.30
2018-05-03T09:51:04.402Z,13.30
2018-05-03T09:53:31.758Z,13.20
2018-05-03T09:55:59.125Z,13.10
2018-05-03T09:58:27.711Z,13.10
2018-05-03T10:00:55.632Z,13.20
2018-05-03T10:03:23.442Z,13.30
2018-05-03T10:05:51.237Z,13.30
2018-05-03T10:08:20.221Z,13.50
2018-05-03T10:10:48.037Z,13.80
2018-05-03T10:13:17.900Z,14.00
2018-05-03T10:15:45.177Z,14.20
2018-05-03T10:18:14.501Z,14.30
2018-05-03T10:20:43.617Z,14.30
2018-05-03T10:23:13.796Z,14.10
2018-05-03T10:25:41.814Z,14.20
2018-05-03T10:28:11.854Z,14.40
2018-05-03T10:30:40.673Z,14.30
2018-05-03T10:33:09.325Z,14.30
2018-05-03T10:35:38.579Z,15.10
2018-05-03T10:38:07.488Z,15.10
2018-05-03T10:40:35.973Z,15.10
2018-05-03T10:43:04.680Z,14.80
2018-05-03T10:45:32.321Z,15.10
2018-05-03T10:48:00.942Z,15.80
2018-05-03T10:50:29.858Z,16.00
2018-05-03T10:53:00.465Z,16.00
2018-05-03T10:55:28.809Z,15.90
2018-05-03T10:58:01.384Z,15.80
2018-05-03T11:00:30.689Z,15.40
2018-05-03T11:03:03.015Z,15.30
2018-05-03T11:05:34.382Z,15.30
2018-05-03T11:08:03.705Z,15.40
2018-05-03T11:10:33.081Z,15.40
2018-05-03T11:13:07.078Z,15.10
2018-05-03T11:15:42.326Z,15.40
2018-05-03T11:18:17.813Z,15.40
2018-05-03T11:23:55.318Z,15.20
2018-05-03T11:26:39.061Z,15.20
2018-05-03T11:29:19.510Z,15.00
2018-05-03T11:32:10.558Z,14.90
2018-05-03T12:37:01.377Z,15.60
2018-05-03T12:39:28.338Z,16.70
2018-05-03T12:41:54.353Z,16.70
2018-05-03T12:44:20.330Z,17.00
2018-05-03T12:46:47.091Z,18.00
2018-05-03T12:49:13.833Z,18.20
2018-05-03T12:51:39.832Z,18.20
2018-05-03T12:54:05.830Z,17.90
2018-05-03T12:56:31.921Z,17.50
2018-05-03T12:58:57.925Z,18.10
2018-05-03T13:01:24.683Z,18.30
2018-05-03T13:03:50.669Z,18.30
2018-05-03T13:06:16.703Z,18.40
2018-05-03T13:08:43.433Z,19.20
2018-05-03T13:11:09.433Z,19.20
2018-05-03T13:13:35.438Z,19.30
2018-05-03T13:16:01.594Z,19.60
2018-05-03T13:18:27.785Z,19.40
2018-05-03T13:20:54.205Z,19.20
2018-05-03T13:23:20.333Z,19.40
2018-05-03T13:25:47.081Z,19.30
2018-05-03T13:28:13.135Z,19.30
2018-05-03T13:30:39.157Z,19.20
2018-05-03T13:33:05.154Z,19.50
2018-05-03T13:35:31.163Z,19.40
2018-05-03T13:37:57.160Z,18.50
2018-05-03T13:40:23.913Z,18.30
2018-05-03T13:42:50.481Z,18.30
2018-05-03T13:45:16.483Z,18.20
2018-05-03T13:47:42.493Z,17.40
2018-05-03T13:50:08.457Z,16.80
2018-05-03T13:52:34.460Z,17.20
2018-05-03T13:55:00.441Z,17.80
2018-05-03T13:57:27.306Z,17.40
2018-05-03T13:59:53.410Z,17.40
2018-05-03T14:02:19.418Z,17.60
2018-05-03T14:04:45.406Z,17.50
2018-05-03T14:07:11.548Z,16.90
2018-05-03T14:09:37.441Z,16.50
2018-05-03T14:12:03.453Z,16.50
2018-05-03T14:14:29.521Z,16.20
2018-05-03T14:16:55.533Z,16.80
2018-05-03T14:19:21.635Z,17.70
2018-05-03T14:21:47.598Z,17.80
2018-05-03T14:24:13.593Z,17.50
2018-05-03T14:26:39.601Z,18.10
2018-05-03T14:29:05.597Z,18.10
2018-05-03T14:31:31.598Z,17.90
2018-05-03T14:33:57.589Z,18.50
2018-05-03T14:36:23.632Z,18.90
2018-05-03T14:38:49.629Z,18.50
2018-05-03T14:41:15.630Z,18.60
2018-05-03T14:43:42.553Z,19.00
2018-05-03T14:46:08.596Z,19.00
2018-05-03T14:48:34.583Z,19.20
2018-05-03T14:51:00.598Z,18.90
2018-05-03T14:53:26.578Z,19.20
2018-05-03T14:55:52.584Z,18.60
2018-05-03T14:58:18.578Z,18.20
2018-05-03T15:00:44.557Z,18.60
2018-05-03T15:03:10.560Z,19.00
2018-05-03T15:05:36.535Z,19.60
2018-05-03T15:08:02.545Z,20.00
2018-05-03T15:10:28.514Z,19.50
2018-05-03T15:12:54.515Z,19.80
2018-05-03T15:15:20.484Z,20.10
2018-05-03T15:17:46.487Z,19.50
2018-05-03T15:20:13.210Z,20.00
2018-05-03T15:22:39.220Z,20.00
2018-05-03T15:25:05.418Z,19.80
2018-05-03T15:27:31.426Z,19.30
2018-05-03T15:29:57.424Z,19.50
2018-05-03T15:32:24.153Z,19.70
2018-05-03T15:34:50.154Z,19.60
2018-05-03T15:37:16.157Z,19.10
2018-05-03T15:39:42.141Z,19.30
2018-05-03T15:42:08.897Z,19.60
2018-05-03T15:44:35.141Z,19.60
2018-05-03T15:47:01.093Z,19.60
2018-05-03T15:49:27.093Z,19.50
2018-05-03T15:51:53.137Z,20.10
2018-05-03T15:54:19.141Z,20.60
2018-05-03T15:56:45.138Z,20.90
2018-05-03T15:59:11.142Z,20.80
2018-05-03T16:01:37.937Z,20.20
2018-05-03T16:04:03.898Z,20.20
2018-05-03T16:06:29.942Z,19.90
2018-05-03T16:08:55.946Z,19.90
2018-05-03T16:11:22.709Z,19.80
2018-05-03T16:13:48.697Z,19.80
2018-05-03T16:16:14.665Z,19.70
2018-05-03T16:18:40.656Z,20.10
2018-05-03T16:21:06.632Z,20.40
2018-05-03T16:23:32.901Z,20.30
2018-05-03T16:25:58.881Z,19.70
2018-05-03T16:28:25.621Z,19.30
2018-05-03T16:30:51.641Z,19.20
2018-05-03T16:33:17.642Z,19.50
2018-05-03T16:35:43.658Z,20.00
2018-05-03T16:38:09.665Z,19.80
2018-05-03T16:40:36.406Z,20.20
2018-05-03T16:43:03.164Z,19.80
2018-05-03T16:45:29.157Z,19.70
2018-05-03T16:47:55.204Z,20.00
2018-05-03T16:50:21.929Z,20.10
2018-05-03T16:52:48.073Z,20.00
2018-05-03T16:55:14.209Z,20.20
2018-05-03T16:57:40.223Z,20.30
2018-05-03T17:00:07.008Z,19.80
2018-05-03T17:02:33.169Z,19.80
2018-05-03T17:04:59.226Z,19.70
2018-05-03T17:07:25.225Z,19.70
2018-05-03T17:09:51.230Z,19.30
2018-05-03T17:12:17.246Z,19.40
2018-05-03T17:14:43.238Z,19.50
2018-05-03T17:17:09.250Z,19.10
2018-05-03T17:19:35.481Z,18.60
2018-05-03T17:22:03.253Z,19.10
2018-05-03T17:24:30.070Z,19.10
2018-05-03T17:26:56.802Z,19.20
2018-05-03T17:29:23.711Z,19.30
2018-05-03T17:31:50.478Z,19.20
2018-05-03T17:34:17.243Z,19.20
2018-05-03T17:36:44.665Z,18.70
2018-05-03T17:39:10.738Z,18.60
2018-05-03T17:41:36.725Z,18.60
2018-05-03T17:44:03.489Z,18.00
2018-05-03T17:46:30.210Z,18.20
2018-05-03T17:48:56.956Z,18.20
2018-05-03T17:51:23.695Z,18.20
2018-05-03T17:53:50.445Z,18.30
2018-05-03T17:56:17.182Z,18.40
2018-05-03T17:58:43.945Z,18.20
2018-05-03T18:01:09.939Z,18.20
2018-05-03T18:03:35.957Z,18.00
2018-05-03T18:06:02.853Z,17.90
2018-05-03T18:08:28.860Z,17.90
2018-05-03T18:10:54.955Z,17.70
2018-05-03T18:13:20.892Z,17.80
2018-05-03T18:15:46.894Z,17.50
2018-05-03T18:18:12.897Z,17.20
2018-05-03T18:20:38.903Z,17.20
2018-05-03T18:23:04.913Z,17.60
2018-05-03T18:25:30.897Z,17.30
2018-05-03T18:27:57.639Z,17.30
2018-05-03T18:30:24.370Z,17.40
2018-05-03T18:32:50.446Z,17.40
2018-05-03T18:35:17.168Z,16.40
2018-05-03T18:37:43.177Z,16.40
2018-05-03T18:40:10.115Z,15.20
2018-05-03T18:42:36.345Z,15.20
2018-05-03T18:45:03.090Z,14.80
2018-05-03T18:47:29.065Z,14.80
2018-05-03T18:49:55.097Z,14.50
2018-05-03T18:52:21.077Z,14.50
2018-05-03T18:54:47.186Z,14.30
2018-05-03T18:57:13.113Z,14.20
2018-05-03T18:59:39.857Z,14.00
2018-05-03T19:02:06.565Z,14.00
2018-05-03T19:04:32.594Z,14.00
2018-05-03T19:06:59.511Z,13.70
2018-05-03T19:09:27.009Z,13.60
2018-05-03T19:11:53.772Z,13.60
2018-05-03T19:14:20.485Z,13.60
2018-05-03T19:16:47.229Z,13.50
2018-05-03T19:19:14.029Z,13.50
2018-05-03T19:21:40.014Z,13.40
2018-05-03T19:24:06.017Z,13.30
2018-05-03T19:26:32.754Z,13.00
2018-05-03T19:28:59.511Z,12.90
2018-05-03T19:31:25.542Z,12.90
2018-05-03T19:33:51.737Z,13.00
2018-05-03T19:36:17.725Z,12.80
2018-05-03T19:38:43.902Z,12.70
2018-05-03T19:41:10.873Z,12.50
2018-05-03T19:43:36.889Z,12.50
2018-05-03T19:46:02.881Z,12.50
2018-05-03T19:48:28.894Z,12.50
2018-05-03T19:50:54.885Z,12.20
2018-05-03T19:53:21.022Z,12.30
2018-05-03T19:55:47.082Z,12.20
2018-05-03T19:58:13.181Z,12.30
2018-05-03T20:00:39.189Z,12.10
2018-05-03T20:03:05.181Z,12.30
2018-05-03T20:05:31.190Z,12.30
2018-05-03T20:07:57.178Z,12.20
2018-05-03T20:10:23.179Z,11.90
2018-05-03T20:12:49.149Z,12.10
2018-05-03T20:15:15.163Z,12.10
2018-05-03T20:17:41.137Z,11.90
2018-05-03T20:20:07.150Z,11.90
2018-05-03T20:22:33.232Z,11.90
2018-05-03T20:24:59.273Z,11.80
2018-05-03T20:27:26.097Z,11.70
2018-05-03T20:29:52.093Z,11.70
2018-05-03T20:32:18.093Z,11.70
2018-05-03T20:34:44.095Z,11.70
2018-05-03T20:37:10.141Z,11.70
2018-05-03T20:39:36.239Z,11.70
2018-05-03T20:42:02.187Z,11.50
2018-05-03T20:44:28.203Z,11.50
2018-05-03T20:46:54.201Z,11.50
2018-05-03T20:49:20.993Z,11.30
2018-05-03T20:51:46.990Z,11.30
2018-05-03T20:54:13.725Z,11.20
2018-05-03T20:56:39.753Z,11.20
2018-05-03T20:59:06.529Z,11.10
2018-05-03T21:01:32.509Z,11.00
2018-05-03T21:03:59.237Z,10.90
2018-05-03T21:06:25.977Z,10.80
2018-05-03T21:08:51.973Z,10.80
2018-05-03T21:11:17.986Z,10.80
2018-05-03T21:13:44.005Z,10.70
2018-05-03T21:16:10.194Z,10.70
2018-05-03T21:18:36.206Z,10.60
2018-05-03T21:21:02.937Z,10.50
2018-05-03T21:23:28.913Z,10.40
2018-05-03T21:25:54.929Z,10.10
2018-05-03T21:28:20.959Z,10.40
2018-05-03T21:30:47.749Z,10.20
2018-05-03T21:33:14.485Z,10.20
2018-05-03T21:35:40.489Z,10.20
2018-05-03T21:38:06.486Z,10.30
2018-05-03T21:40:32.484Z,10.20
2018-05-03T21:42:59.275Z,10.00
2018-05-03T21:45:26.043Z,10.00
2018-05-03T21:47:52.036Z,10.00
2018-05-03T21:50:18.054Z,10.00
2018-05-03T21:52:44.082Z,10.00
2018-05-03T21:55:10.081Z,9.90
2018-05-03T21:57:36.073Z,9.80
2018-05-03T22:00:02.866Z,9.80
2018-05-03T22:02:28.977Z,9.80
2018-05-03T22:04:55.038Z,9.70
2018-05-03T22:07:21.025Z,9.60
2018-05-03T22:09:47.021Z,9.50
2018-05-03T22:12:13.005Z,9.50
2018-05-03T22:14:39.017Z,9.60
2018-05-03T22:17:06.497Z,9.40
2018-05-03T22:19:32.499Z,9.40
2018-05-03T22:21:58.502Z,9.40
2018-05-03T22:24:24.513Z,9.30
2018-05-03T22:26:50.526Z,9.40
2018-05-03T22:29:16.520Z,9.40
2018-05-03T22:31:43.278Z,9.30
2018-05-03T22:34:09.993Z,9.20
2018-05-03T22:36:36.002Z,9.20
2018-05-03T22:39:01.998Z,9.00
2018-05-03T22:41:28.007Z,9.10
2018-05-03T22:43:54.021Z,9.10
2018-05-03T22:46:20.024Z,9.10
2018-05-03T22:48:45.989Z,9.10
2018-05-03T22:51:11.989Z,9.10
2018-05-03T22:53:37.997Z,9.10
2018-05-03T22:56:04.739Z,9.00
2018-05-03T22:58:31.481Z,9.10
2018-05-03T23:00:58.275Z,9.00
2018-05-03T23:03:24.260Z,9.00
2018-05-03T23:05:50.249Z,9.00
2018-05-03T23:08:16.241Z,8.90
2018-05-03T23:10:42.241Z,8.90
2018-05-03T23:13:08.233Z,8.90
2018-05-03T23:15:34.241Z,8.80
2018-05-03T23:18:00.241Z,8.80
2018-05-03T23:20:26.241Z,8.80
2018-05-03T23:22:52.229Z,8.80
2018-05-03T23:25:18.209Z,8.70
2018-05-03T23:27:44.206Z,8.70
2018-05-03T23:30:10.210Z,8.70
2018-05-03T23:32:36.197Z,9.00
2018-05-03T23:35:02.181Z,8.60
2018-05-03T23:37:28.180Z,8.50
2018-05-03T23:39:54.182Z,8.50
2018-05-03T23:42:20.966Z,8.40
2018-05-03T23:44:46.950Z,8.50
2018-05-03T23:47:13.700Z,8.40
2018-05-03T23:49:39.696Z,8.40
2018-05-03T23:52:05.703Z,8.40
2018-05-03T23:54:31.673Z,8.40
2018-05-03T23:56:57.676Z,8.30
2018-05-03T23:59:23.665Z,8.30
